Gore, New Zealand
Current Conditions -  °F | °C
As of 12:00 PM on Tuesday 21 Oct 2014 (Local Time) from NZCH Reporting Station
Clear Clear  
Wind Chill: 59°   Ceiling: Unl
Heat Index: 59°   Visibility: 6mi
Dew Point: 43°   Wind: 6mph
Humidity: 55%   Direction: 80°E
Pressure: 30.12"   Gusts: NA
Location:  46.1°S, 168.95°E
Report Text: NZCH 210000Z AUTO 08005KT 010V150 9999 NCD 15/06 Q1020 NOSIG
Loading
Personal Weather Stations






























Interactive Weather Map
Tropical Storm Tracking
New forecast layout! Learn more

10-Day Weather Forecast

Advertisements
Track Severe Weather on mobile